createdAt,value
2022-08-14T00:01:18.053Z,98278.66
2022-08-14T00:03:57.003Z,98279.76
2022-08-14T00:06:29.399Z,98278.54
2022-08-14T00:09:04.879Z,98275.81
2022-08-14T00:11:38.695Z,98274.70
2022-08-14T00:14:18.316Z,98272.23
2022-08-14T00:16:52.053Z,98264.35
2022-08-14T00:19:28.118Z,98265.45
2022-08-14T00:22:01.470Z,98263.69
2022-08-14T00:24:35.642Z,98256.85
2022-08-14T00:27:09.462Z,98256.34
2022-08-14T00:29:43.094Z,98254.40
2022-08-14T00:32:56.074Z,98253.71
2022-08-14T00:35:12.685Z,98252.31
2022-08-14T00:37:47.086Z,98245.23
2022-08-14T00:40:33.088Z,98241.70
2022-08-14T00:43:08.904Z,98240.64
2022-08-14T00:45:41.607Z,98235.92
2022-08-14T00:48:14.610Z,98235.74
2022-08-14T00:51:11.318Z,98233.66
2022-08-14T00:53:43.833Z,98223.65
2022-08-14T00:56:18.524Z,98223.16
2022-08-14T00:58:51.155Z,98221.63
2022-08-14T01:01:24.527Z,98222.16
2022-08-14T01:04:00.182Z,98221.43
2022-08-14T01:06:36.142Z,98217.42
2022-08-14T01:09:09.354Z,98218.15
2022-08-14T01:11:45.118Z,98217.97
2022-08-14T01:14:31.278Z,98219.52
2022-08-14T01:17:04.316Z,98217.65
2022-08-14T01:19:55.267Z,98218.19
2022-08-14T01:22:29.534Z,98217.23
2022-08-14T01:25:01.794Z,98218.19
2022-08-14T01:27:52.500Z,98214.77
2022-08-14T01:30:36.564Z,98217.88
2022-08-14T01:33:14.610Z,98217.89
2022-08-14T01:36:05.103Z,98214.32
2022-08-14T01:38:44.272Z,98219.76
2022-08-14T01:41:29.745Z,98216.71
2022-08-14T01:44:06.290Z,98215.48
2022-08-14T01:47:01.004Z,98212.35
2022-08-14T01:49:35.240Z,98210.50
2022-08-14T01:52:09.051Z,98214.41
2022-08-14T01:55:00.271Z,98216.31
2022-08-14T01:57:49.410Z,98214.27
2022-08-14T02:00:27.777Z,98211.98
2022-08-14T02:03:00.290Z,98207.05
2022-08-14T02:05:35.674Z,98206.54
2022-08-14T02:08:11.606Z,98207.93
2022-08-14T02:11:11.168Z,98205.81
2022-08-14T02:13:44.310Z,98202.88
2022-08-14T02:16:23.038Z,98202.73
2022-08-14T02:18:58.080Z,98200.92
2022-08-14T02:21:43.673Z,98203.98
2022-08-14T02:24:39.523Z,98203.04
2022-08-14T02:28:24.615Z,98202.14
2022-08-14T02:30:11.214Z,98200.31
2022-08-14T02:32:46.239Z,98196.94
2022-08-14T02:35:22.024Z,98196.73
2022-08-14T02:38:01.034Z,98194.91
2022-08-14T02:40:38.059Z,98189.73
2022-08-14T02:43:10.468Z,98190.86
2022-08-14T02:45:44.652Z,98188.39
2022-08-14T02:49:03.009Z,98191.75
2022-08-14T02:51:13.888Z,98188.55
2022-08-14T02:53:48.111Z,98191.47
2022-08-14T02:56:30.098Z,98187.17
2022-08-14T02:59:21.181Z,98186.77
2022-08-14T03:01:56.183Z,98188.88
2022-08-14T03:04:30.297Z,98187.21
2022-08-14T03:07:07.499Z,98187.25
2022-08-14T03:10:26.129Z,98188.55
2022-08-14T03:12:34.391Z,98188.95
2022-08-14T03:15:16.215Z,98183.84
2022-08-14T03:17:57.847Z,98185.46
2022-08-14T03:20:35.095Z,98183.16
2022-08-14T03:23:07.876Z,98185.39
2022-08-14T03:25:41.327Z,98189.30
2022-08-14T03:28:14.886Z,98187.32
2022-08-14T03:31:08.451Z,98182.44
2022-08-14T03:33:51.718Z,98179.60
2022-08-14T03:38:20.875Z,98181.50
2022-08-14T03:39:24.124Z,98177.77
2022-08-14T03:41:59.983Z,98177.98
2022-08-14T03:45:27.291Z,98174.67
2022-08-14T03:47:46.230Z,98174.18
2022-08-14T03:50:31.073Z,98175.09
2022-08-14T03:53:06.575Z,98175.10
2022-08-14T03:55:40.893Z,98171.60
2022-08-14T03:58:23.521Z,98175.67
2022-08-14T04:01:07.987Z,98174.15
2022-08-14T04:03:41.024Z,98176.35
2022-08-14T04:06:21.047Z,98179.12
2022-08-14T04:08:54.426Z,98178.17
2022-08-14T04:11:30.929Z,98181.74
2022-08-14T04:14:03.551Z,98180.16
2022-08-14T04:16:38.312Z,98178.39
2022-08-14T04:19:13.083Z,98176.83
2022-08-14T04:22:01.760Z,98177.17
2022-08-14T04:24:39.251Z,98179.02
2022-08-14T04:27:17.084Z,98177.84
2022-08-14T04:29:49.628Z,98180.51
2022-08-14T04:32:59.019Z,98179.98
2022-08-14T04:35:23.658Z,98176.95
2022-08-14T04:38:36.506Z,98177.30
2022-08-14T04:41:30.280Z,98173.41
2022-08-14T04:44:05.117Z,98170.39
2022-08-14T04:46:55.856Z,98172.59
2022-08-14T04:49:30.523Z,98171.71
2022-08-14T04:52:04.203Z,98174.27
2022-08-14T04:54:49.547Z,98173.38
2022-08-14T04:57:24.436Z,98172.84
2022-08-14T04:59:57.271Z,98169.25
2022-08-14T05:02:30.536Z,98167.34
2022-08-14T05:05:08.951Z,98166.02
2022-08-14T05:07:53.971Z,98167.67
2022-08-14T05:10:34.867Z,98167.16
2022-08-14T05:13:13.282Z,98167.27
2022-08-14T05:15:48.125Z,98155.98
2022-08-14T05:19:17.146Z,98154.46
2022-08-14T05:22:00.484Z,98154.38
2022-08-14T05:24:17.576Z,98156.52
2022-08-14T05:26:51.583Z,98153.23
2022-08-14T05:29:26.101Z,98150.30
2022-08-14T05:32:03.596Z,98151.62
2022-08-14T05:34:36.278Z,98152.44
2022-08-14T05:37:10.417Z,98151.89
2022-08-14T05:39:43.878Z,98152.58
2022-08-14T05:42:22.071Z,98147.65
2022-08-14T05:45:04.154Z,98147.76
2022-08-14T05:47:43.142Z,98147.09
2022-08-14T05:50:18.709Z,98151.23
2022-08-14T05:52:56.179Z,98146.81
2022-08-14T05:55:28.946Z,98153.35
2022-08-14T05:58:04.221Z,98152.93
2022-08-14T06:00:39.490Z,98151.10
2022-08-14T06:03:15.003Z,98147.12
2022-08-14T06:05:52.006Z,98147.39
2022-08-14T06:08:36.013Z,98144.58
2022-08-14T06:11:14.841Z,98142.14
2022-08-14T06:14:00.814Z,98145.04
2022-08-14T06:16:37.499Z,98146.14
2022-08-14T06:19:11.273Z,98148.11
2022-08-14T06:21:55.829Z,98149.52
2022-08-14T06:24:34.852Z,98146.86
2022-08-14T06:27:10.868Z,98146.19
2022-08-14T06:29:43.764Z,98145.30
2022-08-14T06:32:36.801Z,98139.02
2022-08-14T06:35:13.671Z,98138.16
2022-08-14T06:37:48.502Z,98139.30
2022-08-14T06:40:27.665Z,98137.65
2022-08-14T06:43:03.639Z,98135.14
2022-08-14T06:45:38.885Z,98134.14
2022-08-14T06:48:22.639Z,98137.73
2022-08-14T06:50:58.150Z,98134.17
2022-08-14T06:53:30.405Z,98132.66
2022-08-14T06:56:03.678Z,98127.98
2022-08-14T06:58:35.664Z,98130.52
2022-08-14T07:01:29.322Z,98127.77
2022-08-14T07:04:22.967Z,98129.45
2022-08-14T07:06:59.108Z,98124.73
2022-08-14T07:09:40.655Z,98130.61
2022-08-14T07:12:52.243Z,98131.94
2022-08-14T07:15:12.221Z,98132.79
2022-08-14T07:17:52.295Z,98133.52
2022-08-14T07:20:31.381Z,98131.91
2022-08-14T07:23:09.191Z,98130.67
2022-08-14T07:25:46.555Z,98127.49
2022-08-14T07:28:24.589Z,98132.21
2022-08-14T07:31:04.292Z,98130.95
2022-08-14T07:33:41.977Z,98131.64
2022-08-14T07:36:27.715Z,98126.26
2022-08-14T07:39:12.288Z,98123.92
2022-08-14T07:41:46.368Z,98121.90
2022-08-14T07:44:28.780Z,98124.66
2022-08-14T07:47:07.062Z,98125.79
2022-08-14T07:49:39.932Z,98126.13
2022-08-14T07:52:14.597Z,98126.35
2022-08-14T07:54:55.645Z,98125.95
2022-08-14T07:57:28.843Z,98132.42
2022-08-14T08:00:03.181Z,98130.49
2022-08-14T08:02:36.165Z,98130.05
2022-08-14T08:05:15.625Z,98128.73
2022-08-14T08:07:49.964Z,98127.53
2022-08-14T08:11:01.492Z,98128.31
2022-08-14T08:13:29.192Z,98127.36
2022-08-14T08:16:04.032Z,98123.97
2022-08-14T08:18:39.536Z,98126.46
2022-08-14T08:21:17.889Z,98124.95
2022-08-14T08:23:51.985Z,98121.05
2022-08-14T08:26:23.987Z,98121.42
2022-08-14T08:29:01.174Z,98118.08
2022-08-14T08:31:35.155Z,98121.85
2022-08-14T08:34:14.074Z,98114.70
2022-08-14T08:36:50.850Z,98116.27
2022-08-14T08:39:23.276Z,98116.27
2022-08-14T08:41:56.770Z,98114.41
2022-08-14T08:44:34.227Z,98106.80
2022-08-14T08:47:10.183Z,98111.43
2022-08-14T08:49:52.614Z,98115.08
2022-08-14T08:52:36.230Z,98112.84
2022-08-14T08:55:12.893Z,98110.46
2022-08-14T08:57:44.925Z,98106.39
2022-08-14T09:00:24.306Z,98106.27
2022-08-14T09:03:01.963Z,98108.79
2022-08-14T09:05:36.026Z,98106.64
2022-08-14T09:08:30.700Z,98105.07
2022-08-14T09:11:19.425Z,98105.42
2022-08-14T09:13:55.519Z,98100.38
2022-08-14T09:16:29.705Z,98095.25
2022-08-14T09:19:02.004Z,98091.61
2022-08-14T09:21:34.859Z,98088.23
2022-08-14T09:24:28.314Z,98083.59
2022-08-14T09:27:01.604Z,98084.27
2022-08-14T09:29:34.406Z,98078.53
2022-08-14T09:32:58.326Z,98075.96
2022-08-14T09:35:09.724Z,98079.75
2022-08-14T09:37:49.860Z,98075.13
2022-08-14T09:40:38.941Z,98073.29
2022-08-14T09:43:30.331Z,98066.16
2022-08-14T09:46:07.867Z,98068.17
2022-08-14T09:48:41.378Z,98070.98
2022-08-14T09:51:26.697Z,98070.58
2022-08-14T09:54:18.741Z,98070.86
2022-08-14T09:56:59.447Z,98065.52
2022-08-14T09:59:50.264Z,98062.29
2022-08-14T10:02:27.816Z,98063.90
2022-08-14T10:05:11.105Z,98066.67
2022-08-14T10:07:53.683Z,98073.32
2022-08-14T10:10:35.053Z,98076.33
2022-08-14T10:13:21.458Z,98075.27
2022-08-14T10:16:03.112Z,98076.78
2022-08-14T10:18:35.464Z,98080.20
2022-08-14T10:21:18.438Z,98076.66
2022-08-14T10:23:52.581Z,98077.59
2022-08-14T10:26:28.367Z,98081.64
2022-08-14T10:29:20.179Z,98077.85
2022-08-14T10:32:01.622Z,98077.63
2022-08-14T10:34:38.661Z,98077.63
2022-08-14T10:37:17.144Z,98074.70
2022-08-14T10:40:10.594Z,98076.77
2022-08-14T10:42:57.859Z,98077.82
2022-08-14T10:45:35.847Z,98081.84
2022-08-14T10:48:34.483Z,98078.95
2022-08-14T10:51:11.748Z,98075.05
2022-08-14T10:53:44.756Z,98076.02
2022-08-14T10:56:21.809Z,98072.56
2022-08-14T10:59:05.749Z,98078.52
2022-08-14T11:01:41.268Z,98079.29
2022-08-14T11:04:30.806Z,98072.05
2022-08-14T11:07:05.878Z,98067.79
2022-08-14T11:09:41.841Z,98061.37
2022-08-14T11:12:33.704Z,98065.34
2022-08-14T11:15:12.121Z,98064.59
2022-08-14T11:17:48.839Z,98059.64
2022-08-14T11:20:24.032Z,98058.27
2022-08-14T11:23:00.884Z,98060.50
2022-08-14T11:25:43.316Z,98062.06
2022-08-14T11:28:18.990Z,98063.27
2022-08-14T11:30:54.696Z,98061.38
2022-08-14T11:33:31.340Z,98058.58
2022-08-14T11:36:18.306Z,98054.59
2022-08-14T11:38:53.860Z,98054.34
2022-08-14T11:41:27.346Z,98056.89
2022-08-14T11:44:00.592Z,98052.20
2022-08-14T11:46:37.372Z,98052.94
2022-08-14T11:49:13.895Z,98056.09
2022-08-14T11:51:58.029Z,98053.39
2022-08-14T11:54:36.398Z,98053.48
2022-08-14T11:57:18.740Z,98051.63
2022-08-14T11:59:51.825Z,98044.89
2022-08-14T12:03:01.574Z,98047.01
2022-08-14T12:05:32.810Z,98037.27
2022-08-14T12:08:11.126Z,98038.25
2022-08-14T12:10:46.671Z,98042.02
2022-08-14T12:13:22.988Z,98044.35
2022-08-14T12:16:06.489Z,98042.67
2022-08-14T12:18:45.517Z,98042.20
2022-08-14T12:21:20.273Z,98042.14
2022-08-14T12:24:04.451Z,98043.19
2022-08-14T12:26:40.868Z,98042.01
2022-08-14T12:29:16.978Z,98042.92
2022-08-14T12:31:51.544Z,98039.23
2022-08-14T12:34:25.360Z,98037.48
2022-08-14T12:37:09.078Z,98033.61
2022-08-14T12:39:41.918Z,98032.95
2022-08-14T12:42:27.165Z,98030.88
2022-08-14T12:45:17.212Z,98036.40
2022-08-14T12:47:51.489Z,98032.80
2022-08-14T12:50:23.666Z,98037.08
2022-08-14T12:53:13.888Z,98032.02
2022-08-14T12:56:21.883Z,98031.58
2022-08-14T12:58:52.358Z,98029.27
2022-08-14T13:01:28.128Z,98027.38
2022-08-14T13:04:13.858Z,98029.07
2022-08-14T13:06:51.506Z,98021.38
2022-08-14T13:09:35.726Z,98008.16
2022-08-14T13:12:32.088Z,98002.39
2022-08-14T13:15:08.877Z,97994.86
2022-08-14T13:17:48.132Z,97991.88
2022-08-14T13:20:26.760Z,97992.78
2022-08-14T13:23:03.080Z,97987.23
2022-08-14T13:25:37.955Z,97980.26
2022-08-14T13:28:10.914Z,97975.85
2022-08-14T13:30:47.103Z,97977.13
2022-08-14T13:33:21.701Z,97977.86
2022-08-14T13:35:55.855Z,97978.36
2022-08-14T13:38:29.839Z,97980.72
2022-08-14T13:41:02.179Z,97976.63
2022-08-14T13:43:49.210Z,97974.64
2022-08-14T13:46:31.090Z,97971.77
2022-08-14T13:49:07.923Z,97962.33
2022-08-14T13:51:43.703Z,97955.70
2022-08-14T13:54:22.717Z,97953.23
2022-08-14T13:56:55.664Z,97944.28
2022-08-14T13:59:38.124Z,97940.13
2022-08-14T14:02:11.109Z,97934.98
2022-08-14T14:05:04.461Z,97932.77
2022-08-14T14:07:39.401Z,97928.17
2022-08-14T14:10:19.055Z,97922.67
2022-08-14T14:13:00.944Z,97919.66
2022-08-14T14:15:58.525Z,97919.21
2022-08-14T14:18:34.761Z,97919.94
2022-08-14T14:21:09.119Z,97922.69
2022-08-14T14:23:42.965Z,97916.98
2022-08-14T14:26:23.198Z,97910.81
2022-08-14T14:28:58.375Z,97908.68
2022-08-14T14:31:34.053Z,97909.95
2022-08-14T14:34:29.199Z,97914.98
2022-08-14T14:37:04.887Z,97915.92
2022-08-14T14:40:54.602Z,97917.52
2022-08-14T14:42:35.466Z,97914.61
2022-08-14T14:45:15.430Z,97905.14
2022-08-14T14:47:51.747Z,97905.96
2022-08-14T14:50:32.963Z,97904.32
2022-08-14T14:53:13.305Z,97901.95
2022-08-14T14:56:47.979Z,97905.28
2022-08-14T14:58:40.142Z,97901.61
2022-08-14T15:01:15.849Z,97909.67
2022-08-14T15:03:48.278Z,97912.59
2022-08-14T15:06:30.266Z,97913.52
2022-08-14T15:09:08.923Z,97913.69
2022-08-14T15:11:42.177Z,97912.35
2022-08-14T15:14:54.921Z,97912.33
2022-08-14T15:17:10.848Z,97908.83
2022-08-14T15:19:56.264Z,97916.56
2022-08-14T15:22:32.253Z,97925.88
2022-08-14T15:25:06.631Z,97923.16
2022-08-14T15:27:44.319Z,97922.02
2022-08-14T15:30:24.213Z,97921.27
2022-08-14T15:33:07.809Z,97920.06
2022-08-14T15:35:44.947Z,97923.42
2022-08-14T15:38:19.382Z,97925.40
2022-08-14T15:40:56.197Z,97921.39
2022-08-14T15:43:35.003Z,97919.95
2022-08-14T15:46:25.316Z,97912.59
2022-08-14T15:49:08.960Z,97919.48
2022-08-14T15:51:42.290Z,97921.27
2022-08-14T15:54:17.241Z,97923.42
2022-08-14T15:56:59.327Z,97921.02
2022-08-14T15:59:54.054Z,97917.70
2022-08-14T16:02:28.865Z,97915.29
2022-08-14T16:05:01.748Z,97912.53
2022-08-14T16:07:34.525Z,97912.98
2022-08-14T16:10:29.094Z,97909.23
2022-08-14T16:13:03.571Z,97906.96
2022-08-14T16:15:36.297Z,97898.35
2022-08-14T16:21:10.785Z,97898.45
2022-08-14T16:23:45.376Z,97898.96
2022-08-14T16:26:22.472Z,97895.83
2022-08-14T16:29:05.012Z,97897.65
2022-08-14T16:31:38.768Z,97897.52
2022-08-14T16:34:43.911Z,97888.75
2022-08-14T16:37:06.942Z,97887.29
2022-08-14T16:39:41.894Z,97887.56
2022-08-14T16:40:23.740Z,97900.23
2022-08-14T16:42:39.406Z,97889.67
2022-08-14T16:45:10.553Z,97890.72
2022-08-14T16:47:43.287Z,97889.52
2022-08-14T16:50:40.057Z,97889.49
2022-08-14T16:53:17.852Z,97890.88
2022-08-14T16:55:55.600Z,97889.78
2022-08-14T16:58:30.193Z,97892.04
2022-08-14T17:01:24.881Z,97895.80
2022-08-14T17:04:06.420Z,97897.77
2022-08-14T17:06:49.698Z,97904.98
2022-08-14T17:09:43.590Z,97906.23
2022-08-14T17:12:28.659Z,97901.21
2022-08-14T17:15:09.825Z,97902.55
2022-08-14T17:17:49.970Z,97895.58
2022-08-14T17:20:53.476Z,97888.10
2022-08-14T17:23:29.802Z,97882.40
2022-08-14T17:26:05.632Z,97885.03
2022-08-14T17:28:52.582Z,97885.05
2022-08-14T17:31:59.093Z,97886.37
2022-08-14T17:34:26.846Z,97889.65
2022-08-14T17:37:03.075Z,97890.96
2022-08-14T17:39:40.011Z,97891.98
2022-08-14T17:42:13.685Z,97896.25
2022-08-14T17:44:46.298Z,97896.73
2022-08-14T17:47:20.316Z,97899.10
2022-08-14T17:49:55.697Z,97897.26
2022-08-14T17:52:35.809Z,97896.38
2022-08-14T17:56:01.815Z,97895.73
2022-08-14T17:58:20.801Z,97901.59
2022-08-14T18:00:57.785Z,97902.35
2022-08-14T18:03:50.058Z,97900.41
2022-08-14T18:06:40.109Z,97901.41
2022-08-14T18:09:25.958Z,97896.00
2022-08-14T18:12:03.734Z,97886.78
2022-08-14T18:14:49.001Z,97891.32
2022-08-14T18:17:26.585Z,97893.34
2022-08-14T18:20:01.470Z,97898.05
2022-08-14T18:22:49.672Z,97895.77
2022-08-14T18:25:22.775Z,97895.66
2022-08-14T18:27:56.987Z,97899.02
2022-08-14T18:30:40.165Z,97900.44
2022-08-14T18:33:22.137Z,97903.52
2022-08-14T18:35:58.616Z,97902.05
2022-08-14T18:38:55.426Z,97904.44
2022-08-14T18:41:36.412Z,97908.41
2022-08-14T18:44:11.453Z,97915.52
2022-08-14T18:47:20.185Z,97918.52
2022-08-14T18:50:26.056Z,97919.86
2022-08-14T18:53:10.696Z,97918.90
2022-08-14T18:55:54.593Z,97922.11
2022-08-14T18:58:49.146Z,97919.73
2022-08-14T19:01:33.781Z,97921.23
2022-08-14T19:04:08.500Z,97925.70
2022-08-14T19:06:56.401Z,97922.52
2022-08-14T19:10:00.707Z,97923.20
2022-08-14T19:13:00.772Z,97921.61
2022-08-14T19:15:36.329Z,97914.13
2022-08-14T19:18:27.945Z,97914.56
2022-08-14T19:21:13.310Z,97917.54
2022-08-14T19:24:27.354Z,97917.51
2022-08-14T19:27:23.875Z,97925.04
2022-08-14T19:30:24.826Z,97926.10
2022-08-14T19:33:03.714Z,97923.58
2022-08-14T19:35:59.655Z,97921.21
2022-08-14T19:39:07.371Z,97918.08
2022-08-14T19:41:51.903Z,97923.01
2022-08-14T19:44:31.769Z,97928.55
2022-08-14T19:47:09.490Z,97923.81
2022-08-14T19:50:08.539Z,97918.72
2022-08-14T19:52:40.186Z,97908.11
2022-08-14T19:55:20.409Z,97900.95
2022-08-14T19:58:07.273Z,97893.64
2022-08-14T20:00:52.689Z,97894.79
2022-08-14T20:03:26.176Z,97900.45
2022-08-14T20:06:19.172Z,97901.48
2022-08-14T20:11:11.245Z,97896.11
2022-08-14T20:12:04.648Z,97899.23
2022-08-14T20:14:41.411Z,97904.88
2022-08-14T20:17:28.093Z,97904.19
2022-08-14T20:20:01.292Z,97901.19
2022-08-14T20:22:39.537Z,97898.70
2022-08-14T20:25:16.526Z,97897.34
2022-08-14T20:27:59.287Z,97893.30
2022-08-14T20:30:35.405Z,97885.04
2022-08-14T20:33:11.811Z,97884.02
2022-08-14T20:35:50.324Z,97884.83
2022-08-14T20:38:30.604Z,97886.80
2022-08-14T20:41:09.425Z,97887.75
2022-08-14T20:44:06.741Z,97884.52
2022-08-14T20:46:42.387Z,97884.51
2022-08-14T20:49:18.592Z,97882.38
2022-08-14T20:52:04.956Z,97881.77
2022-08-14T20:54:51.378Z,97880.52
2022-08-14T20:57:25.717Z,97882.97
2022-08-14T21:00:52.642Z,97887.75
2022-08-14T21:03:37.632Z,97888.84
2022-08-14T21:07:23.336Z,97885.87
2022-08-14T21:10:03.498Z,97884.19
2022-08-14T21:12:33.631Z,97878.56
2022-08-14T21:15:13.921Z,97876.09
2022-08-14T21:17:47.878Z,97880.55
2022-08-14T21:20:26.647Z,97884.42
2022-08-14T21:23:01.822Z,97883.52
2022-08-14T21:25:35.560Z,97886.55
2022-08-14T21:28:29.296Z,97885.70
2022-08-14T21:31:04.049Z,97887.77
2022-08-14T21:33:43.042Z,97883.27
2022-08-14T21:36:21.818Z,97881.38
2022-08-14T21:38:55.771Z,97875.10
2022-08-14T21:41:42.896Z,97870.57
2022-08-14T21:44:24.170Z,97874.17
2022-08-14T21:47:17.348Z,97869.02
2022-08-14T21:49:56.415Z,97867.38
2022-08-14T21:52:50.350Z,97864.80
2022-08-14T21:55:23.663Z,97864.31
2022-08-14T21:58:51.262Z,97863.14
2022-08-14T22:00:49.675Z,97870.55
2022-08-14T22:03:24.506Z,97866.60
2022-08-14T22:05:57.960Z,97867.73
2022-08-14T22:08:30.743Z,97865.73
2022-08-14T22:11:03.902Z,97863.00
2022-08-14T22:13:37.423Z,97858.38
2022-08-14T22:17:00.182Z,97852.51
2022-08-14T22:19:17.079Z,97851.27
2022-08-14T22:21:52.413Z,97850.71
2022-08-14T22:24:37.747Z,97854.73
2022-08-14T22:27:11.494Z,97853.48
2022-08-14T22:29:44.164Z,97851.06
2022-08-14T22:32:19.685Z,97847.75
2022-08-14T22:34:58.953Z,97844.61
2022-08-14T22:37:32.658Z,97848.80
2022-08-14T22:40:17.105Z,97853.88
2022-08-14T22:43:08.060Z,97854.35
2022-08-14T22:45:42.444Z,97852.26
2022-08-14T22:48:29.404Z,97847.58
2022-08-14T22:51:04.023Z,97849.66
2022-08-14T22:53:35.882Z,97854.50
2022-08-14T22:56:20.161Z,97856.34
2022-08-14T22:58:54.770Z,97856.63
2022-08-14T23:01:55.502Z,97853.30
2022-08-14T23:04:35.119Z,97845.00
2022-08-14T23:07:22.994Z,97851.09
2022-08-14T23:10:32.543Z,97853.79
2022-08-14T23:12:54.715Z,97854.19
2022-08-14T23:15:30.213Z,97847.25
2022-08-14T23:18:03.888Z,97845.16
2022-08-14T23:20:39.562Z,97845.91
2022-08-14T23:23:22.681Z,97846.43
2022-08-14T23:26:47.190Z,97842.13
2022-08-14T23:28:57.206Z,97847.13
2022-08-14T23:31:36.052Z,97852.79
2022-08-14T23:34:10.591Z,97847.17
2022-08-14T23:36:54.601Z,97852.16
2022-08-14T23:39:31.359Z,97846.92
2022-08-14T23:42:06.296Z,97845.34
2022-08-14T23:44:45.754Z,97843.67
2022-08-14T23:47:26.631Z,97849.14
2022-08-14T23:50:04.080Z,97852.23
2022-08-14T23:52:51.094Z,97849.03
2022-08-14T23:55:36.402Z,97847.50
2022-08-14T23:58:29.114Z,97843.33
